sensor_id;sensor_type;location;lat;lon;timestamp;P1;durP1;ratioP1;P2;durP2;ratioP2
57605;SDS011;43430;48.204;11.556;2022-08-19T00:00:15;11.10;;;4.80;;
57605;SDS011;43430;48.204;11.556;2022-08-19T00:02:42;6.70;;;4.30;;
57605;SDS011;43430;48.204;11.556;2022-08-19T00:05:07;7.35;;;4.55;;
57605;SDS011;43430;48.204;11.556;2022-08-19T00:07:35;7.38;;;4.57;;
57605;SDS011;43430;48.204;11.556;2022-08-19T00:10:00;7.35;;;4.60;;
57605;SDS011;43430;48.204;11.556;2022-08-19T00:12:26;6.47;;;3.97;;
57605;SDS011;43430;48.204;11.556;2022-08-19T00:14:51;6.75;;;3.97;;
57605;SDS011;43430;48.204;11.556;2022-08-19T00:17:19;9.50;;;4.90;;
57605;SDS011;43430;48.204;11.556;2022-08-19T00:19:45;8.27;;;5.15;;
57605;SDS011;43430;48.204;11.556;2022-08-19T00:22:10;8.90;;;4.75;;
57605;SDS011;43430;48.204;11.556;2022-08-19T00:24:36;7.55;;;4.70;;
57605;SDS011;43430;48.204;11.556;2022-08-19T00:27:03;7.70;;;4.45;;
57605;SDS011;43430;48.204;11.556;2022-08-19T00:29:29;7.10;;;4.40;;
57605;SDS011;43430;48.204;11.556;2022-08-19T00:31:54;7.63;;;4.68;;
57605;SDS011;43430;48.204;11.556;2022-08-19T00:34:21;9.43;;;5.35;;
57605;SDS011;43430;48.204;11.556;2022-08-19T00:36:48;8.07;;;4.78;;
57605;SDS011;43430;48.204;11.556;2022-08-19T00:39:17;10.90;;;5.78;;
57605;SDS011;43430;48.204;11.556;2022-08-19T00:41:43;9.70;;;5.85;;
57605;SDS011;43430;48.204;11.556;2022-08-19T00:44:12;11.93;;;6.65;;
57605;SDS011;43430;48.204;11.556;2022-08-19T00:46:42;9.70;;;6.35;;
57605;SDS011;43430;48.204;11.556;2022-08-19T00:49:11;11.15;;;6.70;;
57605;SDS011;43430;48.204;11.556;2022-08-19T00:51:42;12.40;;;7.72;;
57605;SDS011;43430;48.204;11.556;2022-08-19T00:54:11;12.85;;;7.65;;
57605;SDS011;43430;48.204;11.556;2022-08-19T00:56:37;13.00;;;8.48;;
57605;SDS011;43430;48.204;11.556;2022-08-19T00:59:03;12.10;;;7.63;;
57605;SDS011;43430;48.204;11.556;2022-08-19T01:01:34;13.85;;;8.00;;
57605;SDS011;43430;48.204;11.556;2022-08-19T01:04:03;14.35;;;8.60;;
57605;SDS011;43430;48.204;11.556;2022-08-19T01:06:28;13.93;;;8.70;;
57605;SDS011;43430;48.204;11.556;2022-08-19T01:08:57;13.95;;;8.68;;
57605;SDS011;43430;48.204;11.556;2022-08-19T01:11:24;11.73;;;8.52;;
57605;SDS011;43430;48.204;11.556;2022-08-19T01:13:51;15.02;;;9.13;;
57605;SDS011;43430;48.204;11.556;2022-08-19T01:16:19;15.50;;;9.05;;
57605;SDS011;43430;48.204;11.556;2022-08-19T01:18:47;14.43;;;8.88;;
57605;SDS011;43430;48.204;11.556;2022-08-19T01:21:37;12.43;;;8.63;;
57605;SDS011;43430;48.204;11.556;2022-08-19T01:24:02;17.27;;;9.57;;
57605;SDS011;43430;48.204;11.556;2022-08-19T01:26:28;17.30;;;9.52;;
57605;SDS011;43430;48.204;11.556;2022-08-19T01:28:54;16.98;;;10.05;;
57605;SDS011;43430;48.204;11.556;2022-08-19T01:31:22;14.73;;;9.20;;
57605;SDS011;43430;48.204;11.556;2022-08-19T01:33:51;14.23;;;9.50;;
57605;SDS011;43430;48.204;11.556;2022-08-19T01:36:24;20.40;;;10.07;;
57605;SDS011;43430;48.204;11.556;2022-08-19T01:38:56;14.98;;;10.07;;
57605;SDS011;43430;48.204;11.556;2022-08-19T01:41:21;15.25;;;9.35;;
57605;SDS011;43430;48.204;11.556;2022-08-19T01:43:48;15.23;;;9.43;;
57605;SDS011;43430;48.204;11.556;2022-08-19T01:46:14;17.75;;;10.43;;
57605;SDS011;43430;48.204;11.556;2022-08-19T01:48:41;14.63;;;9.48;;
57605;SDS011;43430;48.204;11.556;2022-08-19T01:51:07;16.75;;;10.55;;
57605;SDS011;43430;48.204;11.556;2022-08-19T01:53:34;17.75;;;10.60;;
57605;SDS011;43430;48.204;11.556;2022-08-19T01:56:00;15.90;;;10.10;;
57605;SDS011;43430;48.204;11.556;2022-08-19T01:58:27;17.75;;;10.55;;
57605;SDS011;43430;48.204;11.556;2022-08-19T02:01:01;16.95;;;10.32;;
57605;SDS011;43430;48.204;11.556;2022-08-19T02:03:27;17.80;;;10.70;;
57605;SDS011;43430;48.204;11.556;2022-08-19T02:05:57;16.75;;;9.55;;
57605;SDS011;43430;48.204;11.556;2022-08-19T02:08:26;17.23;;;9.93;;
57605;SDS011;43430;48.204;11.556;2022-08-19T02:10:52;16.27;;;9.25;;
57605;SDS011;43430;48.204;11.556;2022-08-19T02:13:17;15.45;;;10.02;;
57605;SDS011;43430;48.204;11.556;2022-08-19T02:15:43;16.52;;;9.65;;
57605;SDS011;43430;48.204;11.556;2022-08-19T02:18:09;16.63;;;9.60;;
57605;SDS011;43430;48.204;11.556;2022-08-19T02:20:35;15.60;;;9.52;;
57605;SDS011;43430;48.204;11.556;2022-08-19T02:23:01;13.82;;;8.90;;
57605;SDS011;43430;48.204;11.556;2022-08-19T02:25:27;14.70;;;8.85;;
57605;SDS011;43430;48.204;11.556;2022-08-19T02:27:53;17.27;;;10.43;;
57605;SDS011;43430;48.204;11.556;2022-08-19T02:30:19;14.27;;;9.45;;
57605;SDS011;43430;48.204;11.556;2022-08-19T02:32:44;14.52;;;9.55;;
57605;SDS011;43430;48.204;11.556;2022-08-19T02:35:11;12.40;;;8.50;;
57605;SDS011;43430;48.204;11.556;2022-08-19T02:37:37;14.82;;;9.65;;
57605;SDS011;43430;48.204;11.556;2022-08-19T02:40:21;12.85;;;8.95;;
57605;SDS011;43430;48.204;11.556;2022-08-19T02:42:46;12.73;;;8.20;;
57605;SDS011;43430;48.204;11.556;2022-08-19T02:45:12;11.48;;;7.90;;
57605;SDS011;43430;48.204;11.556;2022-08-19T02:47:38;12.40;;;7.97;;
57605;SDS011;43430;48.204;11.556;2022-08-19T02:50:05;11.30;;;7.40;;
57605;SDS011;43430;48.204;11.556;2022-08-19T02:52:31;11.80;;;7.40;;
57605;SDS011;43430;48.204;11.556;2022-08-19T02:54:58;12.10;;;7.10;;
57605;SDS011;43430;48.204;11.556;2022-08-19T02:57:24;11.82;;;7.88;;
57605;SDS011;43430;48.204;11.556;2022-08-19T02:59:49;10.98;;;6.80;;
57605;SDS011;43430;48.204;11.556;2022-08-19T03:02:15;10.85;;;6.97;;
57605;SDS011;43430;48.204;11.556;2022-08-19T03:04:41;11.60;;;6.70;;
57605;SDS011;43430;48.204;11.556;2022-08-19T03:07:07;12.50;;;7.28;;
57605;SDS011;43430;48.204;11.556;2022-08-19T03:09:32;10.23;;;6.95;;
57605;SDS011;43430;48.204;11.556;2022-08-19T03:11:58;11.38;;;6.90;;
57605;SDS011;43430;48.204;11.556;2022-08-19T03:14:23;12.10;;;7.28;;
57605;SDS011;43430;48.204;11.556;2022-08-19T03:16:49;13.60;;;7.18;;
57605;SDS011;43430;48.204;11.556;2022-08-19T03:19:17;11.30;;;7.22;;
57605;SDS011;43430;48.204;11.556;2022-08-19T03:21:44;12.02;;;7.03;;
57605;SDS011;43430;48.204;11.556;2022-08-19T03:24:10;10.45;;;7.53;;
57605;SDS011;43430;48.204;11.556;2022-08-19T03:26:40;12.85;;;7.70;;
57605;SDS011;43430;48.204;11.556;2022-08-19T03:29:07;11.80;;;6.88;;
57605;SDS011;43430;48.204;11.556;2022-08-19T03:31:35;11.63;;;6.65;;
57605;SDS011;43430;48.204;11.556;2022-08-19T03:34:00;13.75;;;7.50;;
57605;SDS011;43430;48.204;11.556;2022-08-19T03:36:25;12.05;;;7.45;;
57605;SDS011;43430;48.204;11.556;2022-08-19T03:38:53;12.80;;;7.03;;
57605;SDS011;43430;48.204;11.556;2022-08-19T03:41:22;13.85;;;7.70;;
57605;SDS011;43430;48.204;11.556;2022-08-19T03:44:08;11.35;;;6.93;;
57605;SDS011;43430;48.204;11.556;2022-08-19T03:46:34;12.52;;;7.32;;
57605;SDS011;43430;48.204;11.556;2022-08-19T03:49:02;12.57;;;7.95;;
57605;SDS011;43430;48.204;11.556;2022-08-19T03:51:34;13.18;;;7.53;;
57605;SDS011;43430;48.204;11.556;2022-08-19T03:54:03;13.35;;;7.82;;
57605;SDS011;43430;48.204;11.556;2022-08-19T03:56:30;13.30;;;7.82;;
57605;SDS011;43430;48.204;11.556;2022-08-19T03:58:56;12.55;;;8.05;;
57605;SDS011;43430;48.204;11.556;2022-08-19T04:01:23;12.98;;;7.50;;
57605;SDS011;43430;48.204;11.556;2022-08-19T04:03:53;14.82;;;8.75;;
57605;SDS011;43430;48.204;11.556;2022-08-19T04:06:24;13.40;;;8.20;;
57605;SDS011;43430;48.204;11.556;2022-08-19T04:08:52;12.43;;;7.57;;
57605;SDS011;43430;48.204;11.556;2022-08-19T04:11:23;14.63;;;8.93;;
57605;SDS011;43430;48.204;11.556;2022-08-19T04:13:56;14.15;;;8.57;;
57605;SDS011;43430;48.204;11.556;2022-08-19T04:16:22;14.60;;;7.90;;
57605;SDS011;43430;48.204;11.556;2022-08-19T04:18:53;14.40;;;7.93;;
57605;SDS011;43430;48.204;11.556;2022-08-19T04:21:20;13.40;;;8.13;;
57605;SDS011;43430;48.204;11.556;2022-08-19T04:23:47;15.13;;;8.13;;
57605;SDS011;43430;48.204;11.556;2022-08-19T04:26:14;13.98;;;8.07;;
57605;SDS011;43430;48.204;11.556;2022-08-19T04:28:41;15.68;;;7.82;;
57605;SDS011;43430;48.204;11.556;2022-08-19T04:31:11;14.13;;;8.63;;
57605;SDS011;43430;48.204;11.556;2022-08-19T04:33:40;15.32;;;8.50;;
57605;SDS011;43430;48.204;11.556;2022-08-19T04:36:06;14.13;;;8.63;;
57605;SDS011;43430;48.204;11.556;2022-08-19T04:38:32;13.57;;;8.20;;
57605;SDS011;43430;48.204;11.556;2022-08-19T04:40:57;18.77;;;9.80;;
57605;SDS011;43430;48.204;11.556;2022-08-19T04:43:58;16.00;;;9.10;;
57605;SDS011;43430;48.204;11.556;2022-08-19T04:46:23;14.05;;;8.05;;
57605;SDS011;43430;48.204;11.556;2022-08-19T04:48:49;14.40;;;8.48;;
57605;SDS011;43430;48.204;11.556;2022-08-19T04:51:14;13.43;;;8.73;;
57605;SDS011;43430;48.204;11.556;2022-08-19T04:53:40;14.27;;;8.63;;
57605;SDS011;43430;48.204;11.556;2022-08-19T04:56:10;14.85;;;8.80;;
57605;SDS011;43430;48.204;11.556;2022-08-19T05:01:07;14.25;;;8.50;;
57605;SDS011;43430;48.204;11.556;2022-08-19T05:03:35;12.60;;;8.10;;
57605;SDS011;43430;48.204;11.556;2022-08-19T05:06:07;16.20;;;8.98;;
57605;SDS011;43430;48.204;11.556;2022-08-19T05:08:35;16.15;;;8.07;;
57605;SDS011;43430;48.204;11.556;2022-08-19T05:11:06;14.02;;;8.10;;
57605;SDS011;43430;48.204;11.556;2022-08-19T05:13:34;13.50;;;8.73;;
57605;SDS011;43430;48.204;11.556;2022-08-19T05:16:00;13.50;;;7.90;;
57605;SDS011;43430;48.204;11.556;2022-08-19T05:18:25;12.40;;;7.65;;
57605;SDS011;43430;48.204;11.556;2022-08-19T05:21:13;14.35;;;8.70;;
57605;SDS011;43430;48.204;11.556;2022-08-19T05:23:58;13.68;;;9.05;;
57605;SDS011;43430;48.204;11.556;2022-08-19T05:26:24;15.20;;;9.45;;
57605;SDS011;43430;48.204;11.556;2022-08-19T05:28:53;14.70;;;8.55;;
57605;SDS011;43430;48.204;11.556;2022-08-19T05:31:19;14.40;;;8.90;;
57605;SDS011;43430;48.204;11.556;2022-08-19T05:33:45;15.73;;;8.73;;
57605;SDS011;43430;48.204;11.556;2022-08-19T05:36:10;13.43;;;8.32;;
57605;SDS011;43430;48.204;11.556;2022-08-19T05:38:36;13.00;;;8.75;;
57605;SDS011;43430;48.204;11.556;2022-08-19T05:41:11;13.10;;;8.50;;
57605;SDS011;43430;48.204;11.556;2022-08-19T05:43:38;12.30;;;7.68;;
57605;SDS011;43430;48.204;11.556;2022-08-19T05:46:04;12.95;;;8.07;;
57605;SDS011;43430;48.204;11.556;2022-08-19T05:48:31;15.23;;;8.48;;
57605;SDS011;43430;48.204;11.556;2022-08-19T05:50:57;14.20;;;9.15;;
57605;SDS011;43430;48.204;11.556;2022-08-19T05:53:24;13.90;;;8.55;;
57605;SDS011;43430;48.204;11.556;2022-08-19T05:55:50;12.55;;;8.27;;
57605;SDS011;43430;48.204;11.556;2022-08-19T05:58:15;17.33;;;9.73;;
57605;SDS011;43430;48.204;11.556;2022-08-19T06:00:42;15.88;;;10.13;;
57605;SDS011;43430;48.204;11.556;2022-08-19T06:03:09;13.88;;;9.35;;
57605;SDS011;43430;48.204;11.556;2022-08-19T06:05:35;15.65;;;10.65;;
57605;SDS011;43430;48.204;11.556;2022-08-19T06:08:00;16.77;;;10.18;;
57605;SDS011;43430;48.204;11.556;2022-08-19T06:10:27;15.05;;;9.77;;
57605;SDS011;43430;48.204;11.556;2022-08-19T06:12:52;15.40;;;9.32;;
57605;SDS011;43430;48.204;11.556;2022-08-19T06:15:18;15.32;;;9.50;;
57605;SDS011;43430;48.204;11.556;2022-08-19T06:17:44;16.92;;;10.95;;
57605;SDS011;43430;48.204;11.556;2022-08-19T06:20:11;16.42;;;10.30;;
57605;SDS011;43430;48.204;11.556;2022-08-19T06:22:39;14.00;;;10.45;;
57605;SDS011;43430;48.204;11.556;2022-08-19T06:25:06;16.40;;;10.02;;
57605;SDS011;43430;48.204;11.556;2022-08-19T06:27:34;17.25;;;10.90;;
57605;SDS011;43430;48.204;11.556;2022-08-19T06:30:00;18.58;;;11.35;;
57605;SDS011;43430;48.204;11.556;2022-08-19T06:32:27;16.00;;;9.95;;
57605;SDS011;43430;48.204;11.556;2022-08-19T06:34:52;18.95;;;11.50;;
57605;SDS011;43430;48.204;11.556;2022-08-19T06:37:18;17.10;;;11.90;;
57605;SDS011;43430;48.204;11.556;2022-08-19T06:39:43;17.67;;;11.55;;
57605;SDS011;43430;48.204;11.556;2022-08-19T06:42:09;19.27;;;12.00;;
57605;SDS011;43430;48.204;11.556;2022-08-19T06:44:39;18.10;;;12.32;;
57605;SDS011;43430;48.204;11.556;2022-08-19T06:47:06;18.52;;;11.38;;
57605;SDS011;43430;48.204;11.556;2022-08-19T06:49:33;18.48;;;11.80;;
57605;SDS011;43430;48.204;11.556;2022-08-19T06:51:59;18.88;;;11.80;;
57605;SDS011;43430;48.204;11.556;2022-08-19T06:54:26;17.60;;;12.18;;
57605;SDS011;43430;48.204;11.556;2022-08-19T06:56:54;19.60;;;11.70;;
57605;SDS011;43430;48.204;11.556;2022-08-19T06:59:21;20.15;;;13.35;;
57605;SDS011;43430;48.204;11.556;2022-08-19T07:01:51;19.23;;;12.05;;
57605;SDS011;43430;48.204;11.556;2022-08-19T07:04:22;20.52;;;12.90;;
57605;SDS011;43430;48.204;11.556;2022-08-19T07:06:50;26.48;;;14.82;;
57605;SDS011;43430;48.204;11.556;2022-08-19T07:09:21;24.77;;;15.23;;
57605;SDS011;43430;48.204;11.556;2022-08-19T07:11:47;22.50;;;15.10;;
57605;SDS011;43430;48.204;11.556;2022-08-19T07:14:15;22.30;;;13.48;;
57605;SDS011;43430;48.204;11.556;2022-08-19T07:16:43;23.13;;;15.23;;
57605;SDS011;43430;48.204;11.556;2022-08-19T07:19:10;23.65;;;15.13;;
57605;SDS011;43430;48.204;11.556;2022-08-19T07:21:36;25.30;;;15.10;;
57605;SDS011;43430;48.204;11.556;2022-08-19T07:24:02;25.70;;;15.60;;
57605;SDS011;43430;48.204;11.556;2022-08-19T07:26:29;23.35;;;15.23;;
57605;SDS011;43430;48.204;11.556;2022-08-19T07:28:57;23.25;;;15.30;;
57605;SDS011;43430;48.204;11.556;2022-08-19T07:31:24;27.45;;;16.60;;
57605;SDS011;43430;48.204;11.556;2022-08-19T07:33:51;28.63;;;17.83;;
57605;SDS011;43430;48.204;11.556;2022-08-19T07:36:19;30.42;;;18.50;;
57605;SDS011;43430;48.204;11.556;2022-08-19T07:38:47;31.85;;;19.58;;
57605;SDS011;43430;48.204;11.556;2022-08-19T07:41:16;34.25;;;20.45;;
57605;SDS011;43430;48.204;11.556;2022-08-19T07:43:43;32.72;;;20.38;;
57605;SDS011;43430;48.204;11.556;2022-08-19T07:46:10;37.15;;;20.45;;
57605;SDS011;43430;48.204;11.556;2022-08-19T07:48:38;30.63;;;19.48;;
57605;SDS011;43430;48.204;11.556;2022-08-19T07:51:05;34.47;;;20.92;;
57605;SDS011;43430;48.204;11.556;2022-08-19T07:53:32;34.53;;;21.17;;
57605;SDS011;43430;48.204;11.556;2022-08-19T07:55:58;29.13;;;19.55;;
57605;SDS011;43430;48.204;11.556;2022-08-19T07:58:33;33.00;;;20.08;;
57605;SDS011;43430;48.204;11.556;2022-08-19T08:01:04;36.85;;;22.35;;
57605;SDS011;43430;48.204;11.556;2022-08-19T08:03:31;36.60;;;22.65;;
57605;SDS011;43430;48.204;11.556;2022-08-19T08:06:15;42.97;;;24.80;;
57605;SDS011;43430;48.204;11.556;2022-08-19T08:09:00;38.67;;;22.73;;
57605;SDS011;43430;48.204;11.556;2022-08-19T08:11:41;36.97;;;21.73;;
57605;SDS011;43430;48.204;11.556;2022-08-19T08:14:13;35.33;;;21.95;;
57605;SDS011;43430;48.204;11.556;2022-08-19T08:16:40;41.60;;;23.88;;
57605;SDS011;43430;48.204;11.556;2022-08-19T08:19:09;38.08;;;23.23;;
57605;SDS011;43430;48.204;11.556;2022-08-19T08:21:35;41.70;;;23.58;;
57605;SDS011;43430;48.204;11.556;2022-08-19T08:24:01;39.33;;;23.15;;
57605;SDS011;43430;48.204;11.556;2022-08-19T08:26:26;38.38;;;23.52;;
57605;SDS011;43430;48.204;11.556;2022-08-19T08:28:52;39.05;;;22.67;;
57605;SDS011;43430;48.204;11.556;2022-08-19T08:31:18;38.50;;;23.20;;
57605;SDS011;43430;48.204;11.556;2022-08-19T08:33:44;38.78;;;22.63;;
57605;SDS011;43430;48.204;11.556;2022-08-19T08:36:11;39.22;;;23.77;;
57605;SDS011;43430;48.204;11.556;2022-08-19T08:38:39;42.15;;;23.10;;
57605;SDS011;43430;48.204;11.556;2022-08-19T08:41:09;38.53;;;22.60;;
57605;SDS011;43430;48.204;11.556;2022-08-19T08:43:46;35.20;;;22.30;;
57605;SDS011;43430;48.204;11.556;2022-08-19T08:46:47;38.50;;;22.63;;
57605;SDS011;43430;48.204;11.556;2022-08-19T08:49:28;41.47;;;23.38;;
57605;SDS011;43430;48.204;11.556;2022-08-19T08:52:00;40.70;;;22.80;;
57605;SDS011;43430;48.204;11.556;2022-08-19T08:54:40;35.63;;;22.15;;
57605;SDS011;43430;48.204;11.556;2022-08-19T08:57:13;39.30;;;23.10;;
57605;SDS011;43430;48.204;11.556;2022-08-19T08:59:45;34.00;;;21.98;;
57605;SDS011;43430;48.204;11.556;2022-08-19T09:02:17;37.83;;;23.10;;
57605;SDS011;43430;48.204;11.556;2022-08-19T09:04:42;40.67;;;23.95;;
57605;SDS011;43430;48.204;11.556;2022-08-19T09:07:20;40.20;;;23.23;;
57605;SDS011;43430;48.204;11.556;2022-08-19T09:10:40;35.42;;;22.23;;
57605;SDS011;43430;48.204;11.556;2022-08-19T09:15:57;40.08;;;22.98;;
57605;SDS011;43430;48.204;11.556;2022-08-19T09:18:38;33.63;;;19.73;;
57605;SDS011;43430;48.204;11.556;2022-08-19T09:21:05;41.20;;;23.02;;
57605;SDS011;43430;48.204;11.556;2022-08-19T09:23:32;34.92;;;22.80;;
57605;SDS011;43430;48.204;11.556;2022-08-19T09:25:57;33.63;;;22.48;;
57605;SDS011;43430;48.204;11.556;2022-08-19T09:28:23;34.90;;;22.63;;
57605;SDS011;43430;48.204;11.556;2022-08-19T09:30:48;35.92;;;22.55;;
57605;SDS011;43430;48.204;11.556;2022-08-19T09:33:16;35.15;;;20.92;;
57605;SDS011;43430;48.204;11.556;2022-08-19T09:35:41;38.63;;;22.10;;
57605;SDS011;43430;48.204;11.556;2022-08-19T09:38:06;35.88;;;21.85;;
57605;SDS011;43430;48.204;11.556;2022-08-19T09:40:32;36.17;;;21.67;;
57605;SDS011;43430;48.204;11.556;2022-08-19T09:42:57;34.20;;;21.48;;
57605;SDS011;43430;48.204;11.556;2022-08-19T09:45:27;40.50;;;23.90;;
57605;SDS011;43430;48.204;11.556;2022-08-19T09:47:53;36.65;;;21.73;;
57605;SDS011;43430;48.204;11.556;2022-08-19T09:50:19;35.35;;;22.55;;
57605;SDS011;43430;48.204;11.556;2022-08-19T09:52:45;33.85;;;20.27;;
57605;SDS011;43430;48.204;11.556;2022-08-19T09:55:11;33.90;;;20.98;;
57605;SDS011;43430;48.204;11.556;2022-08-19T09:57:37;37.65;;;22.77;;
57605;SDS011;43430;48.204;11.556;2022-08-19T10:00:04;38.60;;;21.50;;
57605;SDS011;43430;48.204;11.556;2022-08-19T10:02:33;39.13;;;24.33;;
57605;SDS011;43430;48.204;11.556;2022-08-19T10:04:59;35.70;;;22.65;;
57605;SDS011;43430;48.204;11.556;2022-08-19T10:07:43;44.03;;;23.92;;
57605;SDS011;43430;48.204;11.556;2022-08-19T10:10:09;40.58;;;23.90;;
57605;SDS011;43430;48.204;11.556;2022-08-19T10:12:35;41.83;;;25.25;;
57605;SDS011;43430;48.204;11.556;2022-08-19T10:15:01;45.55;;;25.52;;
57605;SDS011;43430;48.204;11.556;2022-08-19T10:17:29;49.60;;;27.25;;
57605;SDS011;43430;48.204;11.556;2022-08-19T10:19:54;42.95;;;24.40;;
57605;SDS011;43430;48.204;11.556;2022-08-19T10:22:20;44.78;;;24.63;;
57605;SDS011;43430;48.204;11.556;2022-08-19T10:24:45;34.95;;;21.55;;
57605;SDS011;43430;48.204;11.556;2022-08-19T10:27:11;40.35;;;23.08;;
57605;SDS011;43430;48.204;11.556;2022-08-19T10:29:38;33.88;;;20.25;;
57605;SDS011;43430;48.204;11.556;2022-08-19T10:32:04;34.78;;;19.25;;
57605;SDS011;43430;48.204;11.556;2022-08-19T10:34:32;36.22;;;21.05;;
57605;SDS011;43430;48.204;11.556;2022-08-19T10:36:58;39.58;;;22.33;;
57605;SDS011;43430;48.204;11.556;2022-08-19T10:39:25;42.72;;;21.85;;
57605;SDS011;43430;48.204;11.556;2022-08-19T10:41:53;37.83;;;21.48;;
57605;SDS011;43430;48.204;11.556;2022-08-19T10:44:18;39.00;;;21.23;;
57605;SDS011;43430;48.204;11.556;2022-08-19T10:46:45;29.05;;;16.50;;
57605;SDS011;43430;48.204;11.556;2022-08-19T10:49:11;29.52;;;16.33;;
57605;SDS011;43430;48.204;11.556;2022-08-19T10:51:37;24.35;;;14.50;;
57605;SDS011;43430;48.204;11.556;2022-08-19T10:54:22;26.02;;;15.52;;
57605;SDS011;43430;48.204;11.556;2022-08-19T10:56:48;26.95;;;16.00;;
57605;SDS011;43430;48.204;11.556;2022-08-19T10:59:16;25.15;;;15.73;;
57605;SDS011;43430;48.204;11.556;2022-08-19T11:01:47;23.15;;;14.88;;
57605;SDS011;43430;48.204;11.556;2022-08-19T11:04:13;18.88;;;11.70;;
57605;SDS011;43430;48.204;11.556;2022-08-19T11:06:42;19.13;;;11.65;;
57605;SDS011;43430;48.204;11.556;2022-08-19T11:09:10;16.95;;;10.48;;
57605;SDS011;43430;48.204;11.556;2022-08-19T11:11:36;15.52;;;9.98;;
57605;SDS011;43430;48.204;11.556;2022-08-19T11:14:04;11.30;;;7.18;;
57605;SDS011;43430;48.204;11.556;2022-08-19T11:16:30;12.57;;;6.85;;
57605;SDS011;43430;48.204;11.556;2022-08-19T11:18:57;9.82;;;6.53;;
57605;SDS011;43430;48.204;11.556;2022-08-19T11:21:28;7.18;;;5.43;;
57605;SDS011;43430;48.204;11.556;2022-08-19T11:24:01;6.10;;;3.05;;
57605;SDS011;43430;48.204;11.556;2022-08-19T11:26:30;3.67;;;2.00;;
57605;SDS011;43430;48.204;11.556;2022-08-19T11:28:57;2.88;;;1.80;;
57605;SDS011;43430;48.204;11.556;2022-08-19T11:31:26;3.33;;;1.52;;
57605;SDS011;43430;48.204;11.556;2022-08-19T11:33:55;2.67;;;1.58;;
57605;SDS011;43430;48.204;11.556;2022-08-19T11:36:21;4.70;;;2.15;;
57605;SDS011;43430;48.204;11.556;2022-08-19T11:38:47;2.72;;;1.60;;
57605;SDS011;43430;48.204;11.556;2022-08-19T11:41:14;2.67;;;1.30;;
57605;SDS011;43430;48.204;11.556;2022-08-19T11:43:41;3.75;;;1.90;;
57605;SDS011;43430;48.204;11.556;2022-08-19T11:46:09;3.20;;;1.65;;
57605;SDS011;43430;48.204;11.556;2022-08-19T11:48:37;4.93;;;1.70;;
57605;SDS011;43430;48.204;11.556;2022-08-19T11:51:08;3.90;;;1.50;;
57605;SDS011;43430;48.204;11.556;2022-08-19T11:53:36;3.05;;;1.33;;
57605;SDS011;43430;48.204;11.556;2022-08-19T11:56:02;1.95;;;0.82;;
57605;SDS011;43430;48.204;11.556;2022-08-19T11:58:28;2.72;;;1.50;;
57605;SDS011;43430;48.204;11.556;2022-08-19T12:00:54;3.50;;;1.40;;
57605;SDS011;43430;48.204;11.556;2022-08-19T12:03:20;3.90;;;1.08;;
57605;SDS011;43430;48.204;11.556;2022-08-19T12:05:46;2.67;;;1.15;;
57605;SDS011;43430;48.204;11.556;2022-08-19T12:08:12;2.25;;;1.00;;
57605;SDS011;43430;48.204;11.556;2022-08-19T12:10:38;3.13;;;0.93;;
57605;SDS011;43430;48.204;11.556;2022-08-19T12:13:04;2.42;;;1.08;;
57605;SDS011;43430;48.204;11.556;2022-08-19T12:15:34;2.13;;;0.60;;
57605;SDS011;43430;48.204;11.556;2022-08-19T12:18:01;1.85;;;0.80;;
57605;SDS011;43430;48.204;11.556;2022-08-19T12:20:26;2.47;;;0.70;;
57605;SDS011;43430;48.204;11.556;2022-08-19T12:22:52;1.67;;;0.73;;
57605;SDS011;43430;48.204;11.556;2022-08-19T12:25:17;2.30;;;1.13;;
57605;SDS011;43430;48.204;11.556;2022-08-19T12:27:42;2.25;;;0.95;;
57605;SDS011;43430;48.204;11.556;2022-08-19T12:30:09;1.88;;;0.90;;
57605;SDS011;43430;48.204;11.556;2022-08-19T12:32:36;2.33;;;0.98;;
57605;SDS011;43430;48.204;11.556;2022-08-19T12:35:02;2.78;;;0.82;;
57605;SDS011;43430;48.204;11.556;2022-08-19T12:37:28;2.13;;;0.77;;
57605;SDS011;43430;48.204;11.556;2022-08-19T12:39:54;7.38;;;0.70;;
57605;SDS011;43430;48.204;11.556;2022-08-19T12:42:20;1.55;;;0.52;;
57605;SDS011;43430;48.204;11.556;2022-08-19T12:44:46;1.67;;;0.60;;
57605;SDS011;43430;48.204;11.556;2022-08-19T12:47:12;1.73;;;0.60;;
57605;SDS011;43430;48.204;11.556;2022-08-19T12:49:39;1.27;;;0.40;;
57605;SDS011;43430;48.204;11.556;2022-08-19T12:52:05;1.40;;;0.60;;
57605;SDS011;43430;48.204;11.556;2022-08-19T12:54:33;1.20;;;0.50;;
57605;SDS011;43430;48.204;11.556;2022-08-19T12:56:59;1.15;;;0.40;;
57605;SDS011;43430;48.204;11.556;2022-08-19T12:59:25;1.75;;;0.60;;
57605;SDS011;43430;48.204;11.556;2022-08-19T13:01:51;1.30;;;0.45;;
57605;SDS011;43430;48.204;11.556;2022-08-19T13:04:16;2.13;;;0.77;;
57605;SDS011;43430;48.204;11.556;2022-08-19T13:06:42;2.08;;;0.80;;
57605;SDS011;43430;48.204;11.556;2022-08-19T13:09:08;1.40;;;0.40;;
57605;SDS011;43430;48.204;11.556;2022-08-19T13:11:34;1.42;;;0.40;;
57605;SDS011;43430;48.204;11.556;2022-08-19T13:14:00;1.27;;;0.35;;
57605;SDS011;43430;48.204;11.556;2022-08-19T13:16:27;1.10;;;0.43;;
57605;SDS011;43430;48.204;11.556;2022-08-19T13:18:53;1.10;;;0.40;;
57605;SDS011;43430;48.204;11.556;2022-08-19T13:21:20;1.80;;;0.82;;
57605;SDS011;43430;48.204;11.556;2022-08-19T13:23:48;1.88;;;0.60;;
57605;SDS011;43430;48.204;11.556;2022-08-19T13:26:14;1.15;;;0.57;;
57605;SDS011;43430;48.204;11.556;2022-08-19T13:28:41;2.53;;;1.33;;
57605;SDS011;43430;48.204;11.556;2022-08-19T13:31:27;2.50;;;1.40;;
57605;SDS011;43430;48.204;11.556;2022-08-19T13:34:12;2.88;;;1.45;;
57605;SDS011;43430;48.204;11.556;2022-08-19T13:36:38;2.97;;;1.52;;
57605;SDS011;43430;48.204;11.556;2022-08-19T13:39:04;2.97;;;1.10;;
57605;SDS011;43430;48.204;11.556;2022-08-19T13:41:32;1.70;;;0.80;;
57605;SDS011;43430;48.204;11.556;2022-08-19T13:43:58;2.22;;;1.20;;
57605;SDS011;43430;48.204;11.556;2022-08-19T13:46:24;3.08;;;1.42;;
57605;SDS011;43430;48.204;11.556;2022-08-19T13:48:49;2.55;;;1.27;;
57605;SDS011;43430;48.204;11.556;2022-08-19T13:51:15;3.00;;;1.85;;
57605;SDS011;43430;48.204;11.556;2022-08-19T13:53:42;3.03;;;1.58;;
57605;SDS011;43430;48.204;11.556;2022-08-19T13:56:09;3.83;;;2.58;;
57605;SDS011;43430;48.204;11.556;2022-08-19T13:58:36;4.82;;;2.78;;
57605;SDS011;43430;48.204;11.556;2022-08-19T14:01:02;5.47;;;2.92;;
57605;SDS011;43430;48.204;11.556;2022-08-19T14:03:28;4.80;;;3.17;;
57605;SDS011;43430;48.204;11.556;2022-08-19T14:05:53;6.43;;;3.03;;
57605;SDS011;43430;48.204;11.556;2022-08-19T14:08:19;5.80;;;3.40;;
57605;SDS011;43430;48.204;11.556;2022-08-19T14:10:45;5.40;;;3.63;;
57605;SDS011;43430;48.204;11.556;2022-08-19T14:13:12;4.72;;;3.05;;
57605;SDS011;43430;48.204;11.556;2022-08-19T14:15:42;4.18;;;2.63;;
57605;SDS011;43430;48.204;11.556;2022-08-19T14:18:09;6.30;;;4.03;;
57605;SDS011;43430;48.204;11.556;2022-08-19T14:20:35;4.45;;;3.13;;
57605;SDS011;43430;48.204;11.556;2022-08-19T14:23:01;4.78;;;3.22;;
57605;SDS011;43430;48.204;11.556;2022-08-19T14:25:28;5.40;;;3.47;;
57605;SDS011;43430;48.204;11.556;2022-08-19T14:27:55;4.78;;;3.30;;
57605;SDS011;43430;48.204;11.556;2022-08-19T14:30:22;4.60;;;2.92;;